Ever Delight — 3FCB8 — position and weather

sailwx.info

Track history (hours):
 
Tides and Currents Weather Stations Pressure Air Temp Water Temp Dewpoint Dewpoint Depression Visibility Wind Speed Wind Dir Waves Ship Positions

Ever Delight

Last reported at 2014-Oct-30 17:30 UTC. Time now 2014-Oct-30 18:58 UTC.
Position N 37°34' W 123°47'.

Type: Cargo ship. MMSI: 351936000.

Date/timePositionNaut miles runAvg speedWind from/ knotsBaromVisibWave heightAir tempDewpointWater temp
2014-Oct-30 17:30N 37°34' W 123°47'1313.4
2014-Oct-30 16:33N 37°33' W 123°31'1413.8
2014-Oct-30 15:33N 37°34' W 123°14'1313.1
2014-Oct-30 14:33N 37°37' W 122°58'1413.8
2014-Oct-30 13:33N 37°45' W 122°43'1212.0
2014-Oct-30 12:33N 37°49' W 122°29'7 6.9
2014-Oct-30 11:31N 37°49' W 122°20'0 0.0
2014-Oct-30 10:31N 37°49' W 122°20'0 0.0
2014-Oct-30 09:31N 37°49' W 122°20'0 0.0
2014-Oct-30 08:31N 37°49' W 122°20'0 0.0
2014-Oct-30 07:31N 37°49' W 122°20'0 0.0
2014-Oct-30 06:31N 37°49' W 122°20'0 0.0
2014-Oct-30 05:31N 37°49' W 122°20'0 0.0
2014-Oct-30 04:31N 37°49' W 122°20'0 0.0
2014-Oct-30 03:33N 37°49' W 122°20'0 0.0
2014-Oct-30 02:33N 37°49' W 122°20'0 0.0
2014-Oct-30 01:33N 37°49' W 122°20'0 0.0
2014-Oct-30 00:33N 37°49' W 122°20'0 0.0
2014-Oct-29 23:33N 37°49' W 122°20'0 0.0
2014-Oct-29 22:33N 37°49' W 122°20'0 0.3
2014-Oct-29 21:34N 37°49' W 122°20'6 5.9
2014-Oct-29 20:33N 37°49' W 122°27'1313.2
2014-Oct-29 19:33N 37°43' W 122°42'8 7.5
2014-Oct-29 18:33N 37°39' W 122°50'1111.1
2014-Oct-29 17:33N 37°32' W 123°02'1313.5
2014-Oct-29 16:34N 37°19' W 123°01'1413.8
2014-Oct-29 15:33N 37°06' W 122°55'1413.6
2014-Oct-29 14:33N 36°53' W 122°49'1413.9
2014-Oct-29 13:33N 36°41' W 122°42'1413.8
2014-Oct-29 12:33N 36°28' W 122°36'1413.8
2014-Oct-29 11:33N 36°15' W 122°30'1413.6
2014-Oct-29 10:33N 36°03' W 122°21'1413.8
2014-Oct-29 09:33N 35°52' W 122°11'1414.1
2014-Oct-29 08:33N 35°41' W 122°00'1413.9
2014-Oct-29 07:33N 35°30' W 121°50'1414.2
2014-Oct-29 06:33N 35°18' W 121°40'1414.1
2014-Oct-29 05:33N 35°07' W 121°30'1414.2
2014-Oct-29 04:34N 34°55' W 121°19'1613.6
2014-Oct-29 03:25N 34°43' W 121°08'1212.6
2014-Oct-29 02:27N 34°34' W 120°58'6 7.1
2014-Oct-29 01:33N 34°30' W 120°52'1 0.8
2014-Oct-29 00:21N 34°29' W 120°52'2 1.7
2014-Oct-28 23:13N 34°30' W 120°54'1 1.8
2014-Oct-28 22:33N 34°30' W 120°55'2 1.3
2014-Oct-28 21:23N 34°30' W 120°57'3511.5
2014-Oct-28 18:20N 34°18' W 120°17'1417.7
2014-Oct-28 17:33N 34°15' W 120°01'1818.0
2014-Oct-28 16:33N 34°10' W 119°40'1818.0
2014-Oct-28 15:33N 34°05' W 119°19'1817.8
2014-Oct-28 14:33N 33°57' W 118°60'1414.5
2014-Oct-28 13:33N 33°50' W 118°44'1211.4
2014-Oct-28 12:32N 33°44' W 118°32'1111.3
2014-Oct-28 11:32N 33°38' W 118°21'6 6.2
2014-Oct-28 10:33N 33°43' W 118°16'1 1.5
2014-Oct-28 09:33N 33°45' W 118°16'0 0.0
2014-Oct-28 08:33N 33°45' W 118°16'0 0.0
2014-Oct-28 07:33N 33°45' W 118°16'0 0.0
2014-Oct-28 06:31N 33°45' W 118°16'0 0.0
2014-Oct-28 05:29N 33°45' W 118°16'0 0.0
2014-Oct-28 04:32N 33°45' W 118°16'0 0.0
2014-Oct-28 03:32N 33°45' W 118°16'0 0.0
2014-Oct-28 02:32N 33°45' W 118°16'0 0.0
2014-Oct-28 01:32N 33°45' W 118°16'0 0.0
2014-Oct-28 00:32N 33°45' W 118°16'0 0.0
2014-Oct-27 22:29N 33°45' W 118°16'0 0.0
2014-Oct-27 21:32N 33°45' W 118°16'0 0.0
2014-Oct-27 20:14N 33°45' W 118°16'0 0.0
2014-Oct-27 19:33N 33°45' W 118°16'0 0.0
2014-Oct-27 18:32N 33°45' W 118°16'0 0.0
2014-Oct-27 17:32N 33°45' W 118°16'0 0.0
2014-Oct-27 16:32N 33°45' W 118°16'0 0.0
2014-Oct-27 15:32N 33°45' W 118°16'0 0.0
2014-Oct-27 14:32N 33°45' W 118°16'0 0.0
2014-Oct-27 13:32N 33°45' W 118°16'0 0.0
2014-Oct-27 12:32N 33°45' W 118°16'0 0.0
2014-Oct-27 11:32N 33°45' W 118°16'0 0.0
2014-Oct-27 10:32N 33°45' W 118°16'0 0.0
2014-Oct-27 09:32N 33°45' W 118°16'0 0.0
2014-Oct-27 08:32N 33°45' W 118°16'0 0.0
2014-Oct-27 07:33N 33°45' W 118°16'0 0.0
2014-Oct-27 06:33N 33°45' W 118°16'0 0.0
2014-Oct-27 05:33N 33°45' W 118°16'0 0.0
2014-Oct-27 04:33N 33°45' W 118°16'0 0.0
2014-Oct-27 03:33N 33°45' W 118°16'0 0.0
2014-Oct-27 02:33N 33°45' W 118°16'0 0.0
2014-Oct-27 01:30N 33°45' W 118°16'0 0.3
2014-Oct-27 00:34N 33°45' W 118°16'6 5.9
2014-Oct-26 23:33N 33°40' W 118°14'4 4.4
2014-Oct-26 22:33N 33°36' W 118°10'8 6.9
2014-Oct-26 21:28N 33°29' W 118°07'11 8.4
2014-Oct-26 20:11N 33°19' W 118°03'610.0
2014-Oct-26 19:33N 33°13' W 118°00'1414.1
2014-Oct-26 18:34N 32°60' W 117°54'1414.3
2014-Oct-26 17:34N 32°46' W 117°49'1414.2
2014-Oct-26 16:33N 32°33' W 117°43'1414.3
2014-Oct-26 15:33N 32°19' W 117°38'147 3.4
2014-Oct-24 20:33N 29°59' W 116°46'1 0.8
2014-Oct-24 19:33N 30°00' W 116°47'1 0.9
2014-Oct-24 18:27N 30°01' W 116°47'4712.1
2014-Oct-24 14:34N 29°16' W 116°31'1414.2
2014-Oct-24 13:33N 29°03' W 116°26'1414.2
2014-Oct-24 12:33N 28°49' W 116°21'1414.1
2014-Oct-24 11:34N 28°35' W 116°16'1514.1
2014-Oct-24 10:31N 28°21' W 116°11'  
Track history (hours):
 
Tides and Currents Weather Stations Pressure Air Temp Water Temp Dewpoint Dewpoint Depression Visibility Wind Speed Wind Dir Waves Ship Positions

Ever Delight

Last reported at 2014-Oct-30 17:30 UTC. Time now 2014-Oct-30 18:58 UTC.
Position N 37°34' W 123°47'.

Type: Cargo ship. MMSI: 351936000.

Date/timePositionNaut miles runAvg speedWind from/ knotsBaromVisibWave heightAir tempDewpointWater temp
2014-Oct-30 17:30N 37°34' W 123°47'1313.4
2014-Oct-30 16:33N 37°33' W 123°31'1413.8
2014-Oct-30 15:33N 37°34' W 123°14'1313.1
2014-Oct-30 14:33N 37°37' W 122°58'1413.8
2014-Oct-30 13:33N 37°45' W 122°43'1212.0
2014-Oct-30 12:33N 37°49' W 122°29'7 6.9
2014-Oct-30 11:31N 37°49' W 122°20'0 0.0
2014-Oct-30 10:31N 37°49' W 122°20'0 0.0
2014-Oct-30 09:31N 37°49' W 122°20'0 0.0
2014-Oct-30 08:31N 37°49' W 122°20'0 0.0
2014-Oct-30 07:31N 37°49' W 122°20'0 0.0
2014-Oct-30 06:31N 37°49' W 122°20'0 0.0
2014-Oct-30 05:31N 37°49' W 122°20'0 0.0
2014-Oct-30 04:31N 37°49' W 122°20'0 0.0
2014-Oct-30 03:33N 37°49' W 122°20'0 0.0
2014-Oct-30 02:33N 37°49' W 122°20'0 0.0
2014-Oct-30 01:33N 37°49' W 122°20'0 0.0
2014-Oct-30 00:33N 37°49' W 122°20'0 0.0
2014-Oct-29 23:33N 37°49' W 122°20'0 0.0
2014-Oct-29 22:33N 37°49' W 122°20'0 0.3
2014-Oct-29 21:34N 37°49' W 122°20'6 5.9
2014-Oct-29 20:33N 37°49' W 122°27'1313.2
2014-Oct-29 19:33N 37°43' W 122°42'8 7.5
2014-Oct-29 18:33N 37°39' W 122°50'1111.1
2014-Oct-29 17:33N 37°32' W 123°02'1313.5
2014-Oct-29 16:34N 37°19' W 123°01'1413.8
2014-Oct-29 15:33N 37°06' W 122°55'1413.6
2014-Oct-29 14:33N 36°53' W 122°49'1413.9
2014-Oct-29 13:33N 36°41' W 122°42'1413.8
2014-Oct-29 12:33N 36°28' W 122°36'1413.8
2014-Oct-29 11:33N 36°15' W 122°30'1413.6
2014-Oct-29 10:33N 36°03' W 122°21'1413.8
2014-Oct-29 09:33N 35°52' W 122°11'1414.1
2014-Oct-29 08:33N 35°41' W 122°00'1413.9
2014-Oct-29 07:33N 35°30' W 121°50'1414.2
2014-Oct-29 06:33N 35°18' W 121°40'1414.1
2014-Oct-29 05:33N 35°07' W 121°30'1414.2
2014-Oct-29 04:34N 34°55' W 121°19'1613.6
2014-Oct-29 03:25N 34°43' W 121°08'1212.6
2014-Oct-29 02:27N 34°34' W 120°58'6 7.1
2014-Oct-29 01:33N 34°30' W 120°52'1 0.8
2014-Oct-29 00:21N 34°29' W 120°52'2 1.7
2014-Oct-28 23:13N 34°30' W 120°54'1 1.8
2014-Oct-28 22:33N 34°30' W 120°55'2 1.3
2014-Oct-28 21:23N 34°30' W 120°57'3511.5
2014-Oct-28 18:20N 34°18' W 120°17'1417.7
2014-Oct-28 17:33N 34°15' W 120°01'1818.0
2014-Oct-28 16:33N 34°10' W 119°40'1818.0
2014-Oct-28 15:33N 34°05' W 119°19'1817.8
2014-Oct-28 14:33N 33°57' W 118°60'1414.5
2014-Oct-28 13:33N 33°50' W 118°44'1211.4
2014-Oct-28 12:32N 33°44' W 118°32'1111.3
2014-Oct-28 11:32N 33°38' W 118°21'6 6.2
2014-Oct-28 10:33N 33°43' W 118°16'1 1.5
2014-Oct-28 09:33N 33°45' W 118°16'0 0.0
2014-Oct-28 08:33N 33°45' W 118°16'0 0.0
2014-Oct-28 07:33N 33°45' W 118°16'0 0.0
2014-Oct-28 06:31N 33°45' W 118°16'0 0.0
2014-Oct-28 05:29N 33°45' W 118°16'0 0.0
2014-Oct-28 04:32N 33°45' W 118°16'0 0.0
2014-Oct-28 03:32N 33°45' W 118°16'0 0.0
2014-Oct-28 02:32N 33°45' W 118°16'0 0.0
2014-Oct-28 01:32N 33°45' W 118°16'0 0.0
2014-Oct-28 00:32N 33°45' W 118°16'0 0.0
2014-Oct-27 22:29N 33°45' W 118°16'0 0.0
2014-Oct-27 21:32N 33°45' W 118°16'0 0.0
2014-Oct-27 20:14N 33°45' W 118°16'0 0.0
2014-Oct-27 19:33N 33°45' W 118°16'0 0.0
2014-Oct-27 18:32N 33°45' W 118°16'0 0.0
2014-Oct-27 17:32N 33°45' W 118°16'0 0.0
2014-Oct-27 16:32N 33°45' W 118°16'0 0.0
2014-Oct-27 15:32N 33°45' W 118°16'0 0.0
2014-Oct-27 14:32N 33°45' W 118°16'0 0.0
2014-Oct-27 13:32N 33°45' W 118°16'0 0.0
2014-Oct-27 12:32N 33°45' W 118°16'0 0.0
2014-Oct-27 11:32N 33°45' W 118°16'0 0.0
2014-Oct-27 10:32N 33°45' W 118°16'0 0.0
2014-Oct-27 09:32N 33°45' W 118°16'0 0.0
2014-Oct-27 08:32N 33°45' W 118°16'0 0.0
2014-Oct-27 07:33N 33°45' W 118°16'0 0.0
2014-Oct-27 06:33N 33°45' W 118°16'0 0.0
2014-Oct-27 05:33N 33°45' W 118°16'0 0.0
2014-Oct-27 04:33N 33°45' W 118°16'0 0.0
2014-Oct-27 03:33N 33°45' W 118°16'0 0.0
2014-Oct-27 02:33N 33°45' W 118°16'0 0.0
2014-Oct-27 01:30N 33°45' W 118°16'0 0.3
2014-Oct-27 00:34N 33°45' W 118°16'6 5.9
2014-Oct-26 23:33N 33°40' W 118°14'4 4.4
2014-Oct-26 22:33N 33°36' W 118°10'8 6.9
2014-Oct-26 21:28N 33°29' W 118°07'11 8.4
2014-Oct-26 20:11N 33°19' W 118°03'610.0
2014-Oct-26 19:33N 33°13' W 118°00'1414.1
2014-Oct-26 18:34N 32°60' W 117°54'1414.3
2014-Oct-26 17:34N 32°46' W 117°49'1414.2
2014-Oct-26 16:33N 32°33' W 117°43'1414.3
2014-Oct-26 15:33N 32°19' W 117°38'147 3.4
2014-Oct-24 20:33N 29°59' W 116°46'1 0.8
2014-Oct-24 19:33N 30°00' W 116°47'1 0.9
2014-Oct-24 18:27N 30°01' W 116°47'4712.1
2014-Oct-24 14:34N 29°16' W 116°31'1414.2
2014-Oct-24 13:33N 29°03' W 116°26'1414.2
2014-Oct-24 12:33N 28°49' W 116°21'1414.1
2014-Oct-24 11:34N 28°35' W 116°16'1514.1
2014-Oct-24 10:31N 28°21' W 116°11'  

Dump ship's entire track history